Time;durP1;ratioP1;P1;durP2;ratioP2;P2;SDS_P1;SDS_P2;PMS_P1;PMS_P2;Temp;Humidity;BMP_temperature;BMP_pressure;BME280_temperature;BME280_humidity;BME280_pressure;Samples;Min_cycle;Max_cycle;Signal;HPM_P1;HPM_P2
2023/01/30 00:00:09;;;;;;;341.30;92.55;;;;;;;3.98;81.21;99949.72;342157;28;2204;-75
2023/01/30 00:00:20;;;;;;;340.77;93.60;;;;;;;3.98;81.16;99953.16;341870;28;4896;-75
2023/01/30 00:00:30;;;;;;;342.10;94.40;;;;;;;3.99;81.14;99954.88;344199;28;1337;-76
2023/01/30 00:00:41;;;;;;;340.90;93.93;;;;;;;3.99;81.18;99949.69;343456;28;1327;-76
2023/01/30 00:00:52;;;;;;;340.37;93.03;;;;;;;4.01;81.41;99952.28;348446;28;1204;-75
2023/01/30 00:01:04;;;;;;;338.98;91.18;;;;;;;4.00;81.74;99950.56;348079;28;967;-75
2023/01/30 00:01:18;;;;;;;339.30;89.80;;;;;;;4.00;81.21;99950.56;345835;28;1292;-76
2023/01/30 00:01:30;;;;;;;338.20;87.70;;;;;;;4.00;81.28;99955.75;344715;28;1473;-75
2023/01/30 00:01:41;;;;;;;336.02;86.75;;;;;;;4.00;81.23;99953.16;344655;28;1284;-75
2023/01/30 00:01:51;;;;;;;335.80;88.50;;;;;;;4.01;81.03;99957.44;344606;28;1252;-75
2023/01/30 00:02:02;;;;;;;335.33;89.73;;;;;;;3.99;80.88;99954.03;343885;28;1197;-75
2023/01/30 00:02:12;;;;;;;339.65;92.80;;;;;;;3.98;80.96;99957.47;343321;28;1073;-75
2023/01/30 00:02:22;;;;;;;339.23;92.53;;;;;;;3.98;80.66;99953.16;339024;29;2519;-76
2023/01/30 00:02:33;;;;;;;338.73;91.77;;;;;;;3.98;81.06;99958.34;342101;28;1208;-75
2023/01/30 00:02:43;;;;;;;337.70;91.05;;;;;;;3.99;81.02;99956.59;346008;28;1427;-75
2023/01/30 00:02:53;;;;;;;337.03;91.23;;;;;;;3.98;80.89;99957.47;346064;28;1470;-75
2023/01/30 00:03:04;;;;;;;336.30;91.70;;;;;;;3.97;80.64;99953.16;340491;29;1348;-75
2023/01/30 00:03:14;;;;;;;335.67;91.80;;;;;;;3.97;81.21;99955.75;341925;28;1357;-75
2023/01/30 00:03:25;;;;;;;334.10;90.18;;;;;;;3.95;81.24;99949.75;339324;29;1202;-75
2023/01/30 00:03:35;;;;;;;336.83;90.13;;;;;;;3.99;81.26;99954.88;338323;29;1306;-75
2023/01/30 00:03:45;;;;;;;338.30;90.50;;;;;;;3.97;81.08;99950.59;335225;29;1333;-75
2023/01/30 00:03:56;;;;;;;342.60;92.07;;;;;;;3.99;81.04;99959.19;335575;29;847;-75
2023/01/30 00:04:14;;;;;;;341.67;91.47;;;;;;;3.98;81.05;99957.47;339472;29;1553;-78
2023/01/30 00:04:24;;;;;;;340.23;90.68;;;;;;;4.00;81.15;99955.75;334351;29;1406;-78
2023/01/30 00:04:35;;;;;;;337.90;89.50;;;;;;;4.01;80.98;99963.50;331715;29;1213;-76
2023/01/30 00:04:45;;;;;;;337.13;89.60;;;;;;;4.00;81.10;99960.91;333260;29;940;-76
2023/01/30 00:04:56;;;;;;;334.13;88.63;;;;;;;4.00;80.68;99960.91;331802;29;1208;-77
2023/01/30 00:05:06;;;;;;;335.85;89.35;;;;;;;3.98;80.95;99955.75;332129;29;1090;-75
2023/01/30 00:05:17;;;;;;;336.02;90.07;;;;;;;4.00;81.09;99955.75;329664;29;1443;-80
2023/01/30 00:05:27;;;;;;;338.67;90.93;;;;;;;3.99;80.96;99959.19;329498;30;835;-81
2023/01/30 00:05:39;;;;;;;339.67;91.15;;;;;;;3.99;80.99;99961.78;324344;30;1618;-79
2023/01/30 00:05:50;;;;;;;339.75;88.82;;;;;;;3.98;80.95;99955.75;322937;30;1843;-76
2023/01/30 00:06:00;;;;;;;337.73;88.23;;;;;;;4.00;80.93;99956.59;323088;30;1967;-76
2023/01/30 00:06:11;;;;;;;339.08;91.05;;;;;;;4.01;80.91;99954.88;324156;30;1902;-76
2023/01/30 00:06:21;;;;;;;339.80;93.00;;;;;;;3.99;80.95;99954.03;318117;30;5313;-77
2023/01/30 00:06:32;;;;;;;340.70;94.32;;;;;;;3.99;80.87;99954.03;317246;30;3079;-76
2023/01/30 00:06:42;;;;;;;342.77;95.27;;;;;;;3.99;81.16;99954.88;322131;30;1988;-76
2023/01/30 00:06:53;;;;;;;342.17;92.35;;;;;;;3.99;81.07;99954.03;325758;30;4889;-75
2023/01/30 00:07:03;;;;;;;342.93;93.13;;;;;;;3.99;81.11;99956.59;325063;30;1300;-76
2023/01/30 00:07:13;;;;;;;343.90;93.20;;;;;;;3.99;80.84;99954.03;319616;30;2396;-75
2023/01/30 00:07:24;;;;;;;342.13;93.37;;;;;;;4.00;80.90;99955.75;319398;30;4686;-76
2023/01/30 00:07:34;;;;;;;341.98;93.53;;;;;;;4.00;81.12;99951.41;318458;30;2933;-76
2023/01/30 00:07:45;;;;;;;344.87;93.73;;;;;;;4.01;81.08;99958.31;314808;31;2166;-75
2023/01/30 00:07:56;;;;;;;342.95;92.13;;;;;;;4.00;81.14;99955.75;314755;31;4920;-76
2023/01/30 00:08:06;;;;;;;341.90;92.37;;;;;;;4.00;81.16;99956.59;319166;30;2546;-76
2023/01/30 00:08:17;;;;;;;338.70;92.57;;;;;;;4.00;81.22;99953.16;315302;30;4636;-76
2023/01/30 00:08:27;;;;;;;339.90;93.53;;;;;;;4.01;81.00;99957.44;314816;31;2943;-76
2023/01/30 00:08:38;;;;;;;341.77;93.38;;;;;;;4.00;81.18;99953.16;315958;31;2517;-76
2023/01/30 00:08:48;;;;;;;343.23;92.20;;;;;;;4.00;81.06;99955.75;316868;31;4923;-76
2023/01/30 00:08:58;;;;;;;343.88;93.85;;;;;;;4.02;80.99;99961.75;314921;31;1495;-76
2023/01/30 00:09:12;;;;;;;341.53;91.50;;;;;;;4.03;81.09;99954.84;313318;31;1164;-76
2023/01/30 00:09:23;;;;;;;343.58;92.05;;;;;;;4.03;81.11;99960.88;313197;31;4614;-75
2023/01/30 00:09:33;;;;;;;345.48;93.35;;;;;;;4.03;81.01;99952.25;313563;31;2242;-76
2023/01/30 00:09:44;;;;;;;343.57;94.80;;;;;;;4.03;80.93;99955.72;312589;31;2838;-76
2023/01/30 00:09:54;;;;;;;341.45;95.03;;;;;;;4.03;80.67;99950.53;309749;31;1400;-76
2023/01/30 00:10:05;;;;;;;340.87;95.53;;;;;;;4.04;80.67;99953.97;305967;32;3112;-76
2023/01/30 00:10:16;;;;;;;337.70;91.05;;;;;;;4.03;80.83;99953.13;299937;32;3963;-76
2023/01/30 00:10:26;;;;;;;340.40;92.43;;;;;;;4.05;80.87;99958.28;296880;33;5177;-76
2023/01/30 00:10:36;;;;;;;344.13;93.60;;;;;;;4.05;80.95;99953.97;299740;32;3230;-76
2023/01/30 00:10:47;;;;;;;345.40;95.03;;;;;;;4.03;80.93;99954.84;300525;32;2695;-76
2023/01/30 00:11:02;;;;;;;343.40;94.40;;;;;;;4.03;80.91;99953.13;297115;33;3050;-76
2023/01/30 00:11:13;;;;;;;341.20;91.30;;;;;;;4.04;81.00;99947.06;298325;32;3476;-76
2023/01/30 00:11:24;;;;;;;342.77;92.97;;;;;;;4.01;81.04;99950.53;299450;32;2869;-76
2023/01/30 00:11:34;;;;;;;345.48;96.72;;;;;;;4.02;80.95;99943.63;297028;32;2953;-76
2023/01/30 00:11:45;;;;;;;347.17;99.83;;;;;;;4.03;80.89;99957.44;296776;33;3290;-76
2023/01/30 00:11:56;;;;;;;344.25;97.38;;;;;;;4.02;80.94;99954.00;295334;33;3155;-76
2023/01/30 00:12:06;;;;;;;342.20;96.97;;;;;;;4.04;80.98;99956.56;297149;32;3890;-76
2023/01/30 00:12:16;;;;;;;339.70;94.53;;;;;;;4.03;80.72;99953.13;296243;32;5029;-76
2023/01/30 00:12:27;;;;;;;342.10;96.13;;;;;;;4.01;80.87;99949.69;295693;33;3025;-76
2023/01/30 00:12:37;;;;;;;341.77;95.37;;;;;;;4.01;80.86;99947.09;292260;33;5206;-76
2023/01/30 00:12:48;;;;;;;343.43;94.83;;;;;;;4.02;80.75;99948.81;292900;33;4083;-76
2023/01/30 00:12:58;;;;;;;344.07;95.23;;;;;;;4.03;81.24;99947.94;295154;33;764;-76
2023/01/30 00:13:09;;;;;;;342.83;95.77;;;;;;;4.01;81.01;99952.28;287157;34;1244;-76
2023/01/30 00:13:19;;;;;;;341.63;96.32;;;;;;;4.02;80.93;99946.22;288487;33;3904;-77
2023/01/30 00:13:30;;;;;;;340.33;95.97;;;;;;;4.02;80.43;99946.22;286755;34;3558;-77
2023/01/30 00:13:40;;;;;;;342.43;96.20;;;;;;;4.04;80.60;99951.38;286440;34;2139;-77
2023/01/30 00:13:51;;;;;;;343.17;96.18;;;;;;;4.04;80.93;99948.81;285107;34;4209;-77
2023/01/30 00:14:01;;;;;;;342.88;95.40;;;;;;;4.02;81.05;99948.81;286234;34;5144;-76
2023/01/30 00:14:12;;;;;;;339.23;92.67;;;;;;;4.03;80.62;99945.34;286175;34;3724;-77
2023/01/30 00:14:22;;;;;;;339.90;94.13;;;;;;;4.01;80.88;99942.78;280943;34;9185;-77
2023/01/30 00:14:32;;;;;;;345.23;95.40;;;;;;;4.03;81.05;99955.72;283274;34;7298;-77
2023/01/30 00:14:43;;;;;;;349.13;99.30;;;;;;;4.03;80.77;99950.53;284002;34;2098;-75
2023/01/30 00:14:53;;;;;;;349.30;97.63;;;;;;;4.02;80.64;99951.41;282670;34;8348;-76
2023/01/30 00:15:04;;;;;;;343.73;96.00;;;;;;;4.04;80.96;99951.38;281762;34;5935;-76
2023/01/30 00:15:15;;;;;;;341.63;92.93;;;;;;;4.03;80.94;99947.09;280097;34;4467;-75
2023/01/30 00:15:25;;;;;;;340.52;92.75;;;;;;;4.03;80.82;99944.50;280160;35;3233;-75
2023/01/30 00:15:35;;;;;;;343.93;95.43;;;;;;;4.02;80.91;99959.16;276802;35;6086;-75
2023/01/30 00:15:47;;;;;;;344.65;96.45;;;;;;;4.03;80.86;99941.91;277700;35;5396;-75
2023/01/30 00:15:57;;;;;;;346.67;95.20;;;;;;;4.01;80.89;99944.50;277394;35;4664;-76
2023/01/30 00:17:36;;;;;;;333.83;90.72;;;;;;;4.03;80.79;99950.53;2494183;27;20268;-75
2023/01/30 00:17:46;;;;;;;340.90;93.67;;;;;;;4.02;80.78;99948.81;351446;28;1978;-75
2023/01/30 00:17:57;;;;;;;340.88;94.18;;;;;;;4.03;81.16;99952.25;347365;28;3305;-75
2023/01/30 00:18:07;;;;;;;337.77;92.10;;;;;;;4.00;80.88;99954.00;350344;28;1179;-74
2023/01/30 00:18:18;;;;;;;338.33;91.60;;;;;;;4.01;80.94;99955.72;347117;28;4018;-75
2023/01/30 00:18:28;;;;;;;339.83;91.43;;;;;;;4.00;81.12;99953.16;348354;28;4763;-75
2023/01/30 00:18:39;;;;;;;345.33;94.47;;;;;;;3.98;81.04;99953.16;347867;28;1740;-74
2023/01/30 00:18:49;;;;;;;346.60;94.97;;;;;;;3.99;81.06;99946.25;347449;28;4771;-73
2023/01/30 00:19:00;;;;;;;346.63;95.93;;;;;;;3.98;81.10;99953.16;347389;28;1255;-76
2023/01/30 00:19:10;;;;;;;341.27;93.82;;;;;;;3.97;80.77;99953.16;347016;28;3627;-73
2023/01/30 00:19:21;;;;;;;346.77;94.33;;;;;;;3.98;81.03;99950.56;348452;28;4576;-75
2023/01/30 00:19:31;;;;;;;344.17;93.05;;;;;;;3.98;81.32;99952.31;348627;28;4532;-74
2023/01/30 00:19:41;;;;;;;344.13;93.17;;;;;;;3.99;81.38;99951.44;345465;28;1904;-76
2023/01/30 00:19:52;;;;;;;342.13;93.23;;;;;;;3.99;81.18;99954.03;348716;28;4853;-74
2023/01/30 00:20:02;;;;;;;344.80;93.55;;;;;;;3.99;81.48;99951.44;352555;28;1400;-74
2023/01/30 00:20:13;;;;;;;344.30;91.45;;;;;;;3.98;81.20;99952.31;351372;27;4024;-73
2023/01/30 00:20:23;;;;;;;341.87;90.50;;;;;;;3.98;81.29;99952.31;347896;28;3043;-73
2023/01/30 00:20:34;;;;;;;341.08;90.45;;;;;;;4.00;81.30;99953.16;347495;28;1418;-73
2023/01/30 00:20:44;;;;;;;342.93;93.07;;;;;;;4.00;81.57;99951.41;347719;28;1942;-73
2023/01/30 00:20:58;;;;;;;342.50;92.15;;;;;;;4.01;81.52;99954.88;351535;28;3021;-73
2023/01/30 00:21:10;;;;;;;341.52;92.30;;;;;;;4.01;81.42;99949.69;346917;28;4214;-75
2023/01/30 00:21:20;;;;;;;343.23;93.82;;;;;;;4.03;81.36;99957.44;345440;28;4604;-74
2023/01/30 00:21:31;;;;;;;342.93;94.43;;;;;;;4.01;81.66;99958.31;348587;28;1555;-74
2023/01/30 00:21:41;;;;;;;344.10;94.45;;;;;;;4.00;81.37;99947.97;348817;28;1200;-74
2023/01/30 00:21:51;;;;;;;341.73;93.20;;;;;;;4.01;81.35;99952.28;348669;28;2964;-74
2023/01/30 00:22:02;;;;;;;341.17;92.40;;;;;;;4.01;81.31;99953.13;345639;28;1314;-74
2023/01/30 00:22:12;;;;;;;340.42;90.88;;;;;;;4.01;81.47;99952.28;342171;28;4132;-74
2023/01/30 00:22:22;;;;;;;340.97;91.03;;;;;;;4.00;81.59;99953.16;341508;28;2713;-74
2023/01/30 00:22:33;;;;;;;343.65;94.28;;;;;;;3.99;81.72;99951.44;342125;28;1952;-74
2023/01/30 00:22:43;;;;;;;345.37;97.27;;;;;;;3.98;81.50;99950.56;340514;29;2764;-74
2023/01/30 00:22:54;;;;;;;346.27;99.72;;;;;;;3.98;81.62;99952.31;340640;29;1194;-74
2023/01/30 00:23:04;;;;;;;343.27;96.10;;;;;;;3.96;82.08;99948.88;342055;28;1197;-74
2023/01/30 00:23:15;;;;;;;343.30;94.60;;;;;;;3.96;81.98;99954.03;341712;28;1180;-74
2023/01/30 00:23:25;;;;;;;342.73;92.70;;;;;;;3.98;81.65;99952.31;335896;28;1317;-74
2023/01/30 00:23:36;;;;;;;344.63;95.30;;;;;;;3.97;82.01;99953.16;342790;28;1389;-75
2023/01/30 00:23:46;;;;;;;342.00;95.43;;;;;;;3.97;82.01;99950.59;343388;28;1354;-76
2023/01/30 00:23:59;;;;;;;342.60;93.00;;;;;;;3.97;81.92;99954.03;344112;28;1516;-75
2023/01/30 00:24:10;;;;;;;341.52;90.97;;;;;;;3.98;81.86;99953.16;341839;28;924;-75
2023/01/30 00:24:20;;;;;;;341.80;90.63;;;;;;;3.99;82.11;99954.88;335334;29;1435;-75
2023/01/30 00:24:31;;;;;;;340.40;91.77;;;;;;;4.00;82.10;99958.31;338495;29;1357;-74
2023/01/30 00:24:41;;;;;;;341.20;92.40;;;;;;;3.98;82.08;99954.88;339258;29;818;-74
2023/01/30 00:24:51;;;;;;;342.23;94.33;;;;;;;3.98;81.97;99952.31;341833;28;964;-74
2023/01/30 00:25:02;;;;;;;341.65;93.57;;;;;;;3.98;82.04;99952.31;340140;29;1210;-74
2023/01/30 00:25:12;;;;;;;340.70;93.20;;;;;;;3.98;82.29;99953.16;339254;28;1315;-74
2023/01/30 00:25:24;;;;;;;340.92;92.18;;;;;;;3.97;82.14;99950.59;340385;29;1502;-74
2023/01/30 00:25:34;;;;;;;342.58;92.28;;;;;;;3.97;81.99;99950.59;337521;29;1333;-74
2023/01/30 00:25:45;;;;;;;341.42;92.65;;;;;;;3.98;82.12;99954.88;336913;29;1436;-74
2023/01/30 00:25:55;;;;;;;342.83;92.53;;;;;;;3.98;82.61;99947.13;337915;29;1257;-74
2023/01/30 00:26:06;;;;;;;342.77;90.40;;;;;;;3.98;82.20;99953.16;333939;29;1308;-74
2023/01/30 00:26:16;;;;;;;342.47;90.83;;;;;;;3.99;82.39;99949.69;332566;29;1709;-74
2023/01/30 00:26:26;;;;;;;337.23;90.10;;;;;;;3.99;82.20;99948.84;330426;29;1975;-74
2023/01/30 00:26:38;;;;;;;338.27;90.63;;;;;;;3.99;82.13;99956.59;336965;29;1201;-77
2023/01/30 00:26:49;;;;;;;341.95;89.43;;;;;;;3.97;82.25;99950.59;336591;29;1017;-78
2023/01/30 00:26:59;;;;;;;344.58;90.60;;;;;;;3.97;82.00;99950.59;334669;29;1265;-75
2023/01/30 00:27:09;;;;;;;343.60;92.73;;;;;;;3.99;82.43;99951.44;334000;29;962;-74
2023/01/30 00:27:20;;;;;;;339.83;93.95;;;;;;;3.99;81.99;99954.03;331292;29;1260;-74
2023/01/30 00:27:30;;;;;;;340.07;94.43;;;;;;;3.99;82.10;99951.44;328691;29;1517;-74
2023/01/30 00:27:40;;;;;;;340.77;93.90;;;;;;;3.98;82.08;99947.13;326257;29;1844;-74
2023/01/30 00:27:51;;;;;;;342.17;94.43;;;;;;;3.98;82.08;99952.31;326444;30;1294;-74
2023/01/30 00:28:01;;;;;;;343.73;93.70;;;;;;;3.98;82.06;99947.13;329743;29;1925;-74
2023/01/30 00:28:12;;;;;;;343.92;93.97;;;;;;;3.98;81.60;99949.72;327364;30;2067;-74
2023/01/30 00:28:22;;;;;;;342.27;92.50;;;;;;;3.99;82.05;99946.25;325528;30;821;-74
2023/01/30 00:28:33;;;;;;;340.95;92.68;;;;;;;3.98;81.76;99947.97;329809;29;2174;-74
2023/01/30 00:28:43;;;;;;;341.80;94.60;;;;;;;3.99;81.29;99943.66;332980;29;1749;-74
2023/01/30 00:28:53;;;;;;;341.65;93.05;;;;;;;3.98;81.81;99947.97;332776;29;1203;-74
2023/01/30 00:29:04;;;;;;;343.27;91.47;;;;;;;3.97;81.69;99941.09;329029;29;1312;-75
2023/01/30 00:29:14;;;;;;;341.05;88.97;;;;;;;3.99;81.88;99948.84;327754;30;945;-75
2023/01/30 00:29:25;;;;;;;340.73;89.10;;;;;;;3.99;81.74;99948.84;327884;30;1231;-75
2023/01/30 00:29:35;;;;;;;338.63;90.63;;;;;;;3.99;81.91;99943.66;326188;30;1549;-74
2023/01/30 00:29:45;;;;;;;335.77;90.87;;;;;;;3.99;81.68;99946.25;326758;29;2118;-74
2023/01/30 00:29:56;;;;;;;336.17;91.60;;;;;;;3.99;81.86;99948.84;327431;29;2436;-74
2023/01/30 00:30:07;;;;;;;337.00;91.73;;;;;;;4.00;81.61;99942.78;327708;30;1427;-74
2023/01/30 00:30:20;;;;;;;340.27;91.32;;;;;;;3.97;81.87;99940.22;324386;30;2521;-74
2023/01/30 00:30:30;;;;;;;341.48;89.90;;;;;;;3.97;81.88;99951.44;324424;29;4652;-75
2023/01/30 00:30:41;;;;;;;339.83;90.97;;;;;;;3.96;82.11;99943.69;324807;30;2894;-75
2023/01/30 00:30:52;;;;;;;340.50;93.23;;;;;;;3.98;82.08;99949.72;321977;30;1287;-75
2023/01/30 00:31:02;;;;;;;339.17;93.30;;;;;;;3.97;82.32;99945.41;322335;30;1990;-75
2023/01/30 00:31:13;;;;;;;340.92;94.25;;;;;;;3.97;82.21;99954.03;322084;30;1241;-75
2023/01/30 00:31:23;;;;;;;341.53;93.43;;;;;;;3.96;82.04;99943.69;323409;30;3712;-75
2023/01/30 00:31:33;;;;;;;341.48;93.55;;;;;;;3.97;81.95;99945.41;319722;30;4831;-75
2023/01/30 00:31:44;;;;;;;340.93;91.97;;;;;;;3.95;82.15;99948.00;322487;30;2540;-75
2023/01/30 00:31:54;;;;;;;340.05;92.45;;;;;;;3.96;82.48;99944.56;319930;30;1716;-75
2023/01/30 00:32:07;;;;;;;342.20;93.13;;;;;;;3.96;82.33;99949.72;317958;30;3015;-75
2023/01/30 00:32:17;;;;;;;341.58;94.35;;;;;;;3.96;82.48;99948.88;321489;30;3282;-75
2023/01/30 00:32:28;;;;;;;341.63;94.93;;;;;;;3.95;82.11;99945.41;316508;30;4264;-75
2023/01/30 00:32:38;;;;;;;340.92;94.95;;;;;;;3.95;82.31;99941.97;315846;31;2868;-75
2023/01/30 00:32:56;;;;;;;342.63;95.30;;;;;;;3.95;82.30;99939.38;315596;30;3397;-75
2023/01/30 00:33:06;;;;;;;343.67;93.05;;;;;;;3.95;82.25;99941.97;316186;31;3115;-75
2023/01/30 00:33:16;;;;;;;343.00;91.87;;;;;;;3.95;82.64;99944.56;314046;31;2510;-75
2023/01/30 00:33:27;;;;;;;346.23;93.13;;;;;;;3.94;82.61;99948.88;310309;31;4195;-75
2023/01/30 00:33:38;;;;;;;345.55;93.68;;;;;;;3.96;82.48;99943.69;306550;32;2691;-75
2023/01/30 00:33:48;;;;;;;345.20;93.78;;;;;;;3.95;82.39;99944.56;305764;31;2517;-75
2023/01/30 00:33:59;;;;;;;342.80;92.90;;;;;;;3.96;82.26;99943.69;306586;31;3488;-75
2023/01/30 00:34:09;;;;;;;344.42;91.72;;;;;;;3.94;82.40;99941.13;307275;32;2899;-75
2023/01/30 00:34:22;;;;;;;344.33;90.87;;;;;;;3.95;82.37;99941.97;307567;32;4116;-75
2023/01/30 00:34:32;;;;;;;345.65;91.05;;;;;;;3.95;82.37;99940.25;305268;31;4490;-75
2023/01/30 00:34:43;;;;;;;348.40;91.23;;;;;;;3.96;82.43;99948.88;306169;32;5457;-75
2023/01/30 00:34:53;;;;;;;351.13;93.13;;;;;;;3.94;82.45;99943.69;305231;32;1919;-75
2023/01/30 00:35:05;;;;;;;354.03;94.97;;;;;;;3.94;82.68;99945.44;302348;32;4461;-75
2023/01/30 00:35:16;;;;;;;349.63;94.57;;;;;;;3.94;82.47;99945.44;303279;32;4249;-75
2023/01/30 00:35:29;;;;;;;344.30;90.97;;;;;;;3.96;82.61;99944.56;303476;32;3509;-75
2023/01/30 00:35:44;;;;;;;340.50;91.30;;;;;;;3.95;82.70;99947.16;304243;32;4917;-75
2023/01/30 00:35:55;;;;;;;344.83;94.82;;;;;;;3.96;82.61;99943.69;300838;32;1941;-75
2023/01/30 00:36:06;;;;;;;352.85;95.63;;;;;;;3.96;82.25;99941.09;298007;33;3020;-75
2023/01/30 00:36:16;;;;;;;355.53;96.17;;;;;;;3.96;82.30;99941.97;300394;32;5074;-75
2023/01/30 00:36:26;;;;;;;348.05;92.50;;;;;;;3.95;82.62;99948.00;297739;32;6572;-75
2023/01/30 00:36:37;;;;;;;345.77;91.93;;;;;;;3.94;82.64;99942.84;289248;33;4668;-75
2023/01/30 00:36:47;;;;;;;346.60;91.38;;;;;;;3.94;82.48;99943.69;290520;33;6936;-75
2023/01/30 00:36:58;;;;;;;350.23;92.83;;;;;;;3.95;82.48;99941.97;290741;33;8041;-75
2023/01/30 00:37:08;;;;;;;346.20;92.05;;;;;;;3.94;82.58;99945.44;294837;33;2027;-75
2023/01/30 00:37:18;;;;;;;345.30;92.40;;;;;;;3.96;82.47;99938.50;296318;32;6059;-75
2023/01/30 00:37:29;;;;;;;348.27;91.93;;;;;;;3.96;82.33;99946.28;292556;33;6324;-75
2023/01/30 00:37:39;;;;;;;347.97;92.67;;;;;;;3.96;82.54;99944.56;291665;33;4417;-75
2023/01/30 00:37:49;;;;;;;349.70;93.93;;;;;;;3.96;82.54;99938.50;288596;33;4919;-75
2023/01/30 00:38:02;;;;;;;347.92;94.07;;;;;;;3.96;82.54;99949.72;287830;33;4681;-75
2023/01/30 00:38:12;;;;;;;348.67;92.95;;;;;;;3.96;82.26;99938.50;286694;34;5999;-75
2023/01/30 00:38:23;;;;;;;345.17;92.60;;;;;;;3.97;82.32;99950.59;287933;34;979;-75
2023/01/30 00:38:33;;;;;;;345.27;90.50;;;;;;;3.96;82.35;99946.28;284209;34;7971;-75
2023/01/30 00:38:44;;;;;;;345.30;90.67;;;;;;;3.95;82.43;99947.16;281402;34;8742;-75
2023/01/30 00:38:56;;;;;;;345.60;90.60;;;;;;;3.96;82.38;99947.13;280656;35;3138;-75
2023/01/30 00:39:07;;;;;;;340.35;90.03;;;;;;;3.94;82.22;99941.13;280685;35;2113;-75
2023/01/30 00:39:17;;;;;;;342.92;90.20;;;;;;;3.95;82.87;99945.41;279787;35;10859;-75
2023/01/30 00:40:52;;;;;;;336.63;87.71;;;;;;;3.95;82.46;99944.56;2489560;27;20497;-75
2023/01/30 00:41:03;;;;;;;344.03;90.40;;;;;;;3.95;82.96;99941.97;352712;28;1797;-75
2023/01/30 00:41:14;;;;;;;342.90;91.83;;;;;;;3.96;82.59;99949.72;349970;28;2851;-74
2023/01/30 00:47:03;;;;;;;340.15;89.53;;;;;;;3.96;82.77;99943.69;347072;28;3648;-75
2023/01/30 00:47:04;;;;;;;343.77;91.25;;;;;;;3.93;82.71;99938.53;339410;29;1553;-75
2023/01/30 00:47:15;;;;;;;346.25;93.43;;;;;;;3.97;82.22;99948.00;338865;29;4788;-75
2023/01/30 00:47:25;;;;;;;343.67;91.72;;;;;;;3.98;82.41;99944.53;342155;28;896;-75
2023/01/30 00:47:36;;;;;;;340.33;89.80;;;;;;;3.97;82.67;99943.69;332517;29;3878;-75
2023/01/30 00:47:47;;;;;;;340.40;89.85;;;;;;;3.97;82.33;99946.25;339083;28;1679;-75
2023/01/30 00:47:58;;;;;;;342.20;91.03;;;;;;;3.99;82.42;99944.53;339111;29;1842;-75
2023/01/30 00:48:08;;;;;;;342.83;92.60;;;;;;;3.98;82.48;99942.81;336258;29;3119;-75
2023/01/30 00:48:19;;;;;;;341.38;93.05;;;;;;;3.98;82.04;99942.81;339408;29;1131;-75
2023/01/30 00:48:29;;;;;;;340.80;91.67;;;;;;;3.98;82.40;99942.81;340647;28;3769;-75
2023/01/30 00:48:40;;;;;;;341.23;91.72;;;;;;;4.00;82.14;99945.38;338192;29;2752;-75
2023/01/30 00:48:50;;;;;;;343.07;92.90;;;;;;;4.00;82.06;99940.19;344402;28;1430;-75
2023/01/30 00:49:00;;;;;;;343.17;94.10;;;;;;;4.01;82.15;99947.09;340959;28;1997;-75
2023/01/30 00:49:11;;;;;;;343.37;93.23;;;;;;;4.01;82.21;99941.91;339529;29;3089;-75
2023/01/30 00:49:21;;;;;;;343.23;91.75;;;;;;;4.00;82.14;99945.38;338082;29;1264;-75
2023/01/30 00:49:32;;;;;;;341.10;90.17;;;;;;;4.01;81.90;99947.09;334565;29;4399;-75
2023/01/30 00:49:42;;;;;;;340.55;89.63;;;;;;;3.99;82.03;99939.34;334558;29;2716;-75
2023/01/30 00:49:52;;;;;;;341.20;91.93;;;;;;;3.99;82.14;99944.53;337870;29;1825;-75
2023/01/30 00:50:03;;;;;;;342.85;91.80;;;;;;;3.99;82.09;99951.44;335268;29;1007;-75
2023/01/30 00:50:14;;;;;;;342.93;92.50;;;;;;;3.99;82.11;99948.84;330800;29;1405;-75
2023/01/30 00:50:24;;;;;;;341.92;90.45;;;;;;;3.99;82.09;99943.66;331125;29;3490;-75
2023/01/30 00:50:44;;;;;;;340.00;91.03;;;;;;;3.98;82.26;99947.97;334870;29;4200;-75
2023/01/30 00:50:54;;;;;;;337.05;90.95;;;;;;;3.98;82.20;99944.53;330038;29;1747;-75
2023/01/30 00:51:04;;;;;;;337.88;92.20;;;;;;;4.00;81.80;99945.38;328045;29;2825;-75
2023/01/30 00:51:15;;;;;;;341.87;95.57;;;;;;;4.00;82.41;99942.78;326407;30;1891;-75
2023/01/30 00:51:25;;;;;;;344.00;97.03;;;;;;;4.00;81.87;99947.97;324460;30;797;-75
2023/01/30 00:51:36;;;;;;;345.67;94.57;;;;;;;3.98;82.16;99941.94;326877;29;3859;-75
2023/01/30 00:51:46;;;;;;;342.87;92.87;;;;;;;3.98;81.90;99947.13;328288;29;2973;-75
2023/01/30 00:51:57;;;;;;;344.55;92.82;;;;;;;3.99;82.07;99949.69;326760;30;1611;-75
2023/01/30 00:52:07;;;;;;;347.75;96.25;;;;;;;4.01;82.21;99952.28;326636;30;1913;-75
2023/01/30 00:52:17;;;;;;;346.60;93.27;;;;;;;4.00;81.88;99950.56;327795;30;2845;-75
2023/01/30 00:52:28;;;;;;;344.27;91.53;;;;;;;3.97;81.84;99941.09;328616;29;1239;-75
2023/01/30 00:52:38;;;;;;;342.50;91.18;;;;;;;4.00;81.77;99945.38;322028;30;4607;-75
2023/01/30 00:52:49;;;;;;;344.70;92.50;;;;;;;3.98;82.15;99944.53;322400;30;2993;-75
2023/01/30 00:52:59;;;;;;;345.77;92.53;;;;;;;3.97;81.84;99938.50;323933;30;2038;-75
2023/01/30 00:53:13;;;;;;;342.57;90.83;;;;;;;3.97;81.96;99941.09;322949;30;2891;-75
2023/01/30 00:53:23;;;;;;;342.38;90.72;;;;;;;3.97;82.21;99946.25;319766;30;853;-75
2023/01/30 00:53:34;;;;;;;342.10;92.05;;;;;;;3.99;82.09;99948.84;322206;30;2574;-75
2023/01/30 00:53:44;;;;;;;341.47;93.50;;;;;;;3.98;82.42;99941.94;319297;30;2649;-75
2023/01/30 00:53:54;;;;;;;341.38;93.90;;;;;;;3.98;82.13;99945.41;316245;31;941;-76
2023/01/30 00:54:05;;;;;;;343.00;94.47;;;;;;;3.99;82.36;99944.53;318820;30;2543;-76
2023/01/30 00:54:15;;;;;;;342.77;93.60;;;;;;;3.97;81.84;99938.50;319159;30;1737;-76
2023/01/30 00:54:26;;;;;;;341.60;92.83;;;;;;;3.99;81.99;99941.06;318292;31;868;-76
2023/01/30 00:54:36;;;;;;;340.75;91.72;;;;;;;3.97;82.20;99946.25;316029;31;834;-75
2023/01/30 00:54:46;;;;;;;342.13;92.33;;;;;;;3.95;82.02;99942.84;318135;30;2368;-75
2023/01/30 00:54:57;;;;;;;342.35;93.65;;;;;;;3.97;82.37;99940.22;317820;30;2400;-76
2023/01/30 00:55:07;;;;;;;343.93;94.13;;;;;;;3.95;82.21;99941.97;316055;31;1176;-76
2023/01/30 00:55:18;;;;;;;344.23;93.95;;;;;;;3.96;82.15;99938.50;314929;31;2936;-75
2023/01/30 00:55:28;;;;;;;343.63;93.83;;;;;;;3.92;82.47;99939.41;314928;30;3385;-75
2023/01/30 00:55:39;;;;;;;339.10;91.93;;;;;;;3.92;82.16;99939.41;317095;31;1113;-76
2023/01/30 00:55:52;;;;;;;337.63;91.13;;;;;;;3.92;82.24;99939.41;316213;31;3379;-75
2023/01/30 00:56:03;;;;;;;337.32;89.78;;;;;;;3.90;82.38;99939.41;316284;31;3209;-75
2023/01/30 00:56:13;;;;;;;339.40;91.60;;;;;;;3.89;82.32;99939.47;314080;31;2883;-75
2023/01/30 00:56:24;;;;;;;341.85;91.68;;;;;;;3.90;82.26;99941.19;312560;31;890;-75
2023/01/30 00:56:34;;;;;;;345.23;92.25;;;;;;;3.90;82.50;99938.59;314799;31;1673;-74
2023/01/30 00:56:45;;;;;;;347.93;93.60;;;;;;;3.90;82.50;99936.00;315099;31;2132;-74
2023/01/30 00:56:55;;;;;;;345.05;93.07;;;;;;;3.90;82.33;99934.25;313851;31;3713;-74
2023/01/30 00:57:05;;;;;;;343.13;93.70;;;;;;;3.89;82.48;99936.88;313244;31;3571;-74
2023/01/30 00:57:16;;;;;;;342.33;94.40;;;;;;;3.90;82.42;99936.00;312802;30;3418;-76
2023/01/30 00:57:26;;;;;;;342.23;93.73;;;;;;;3.90;82.29;99934.25;313553;30;4677;-74
2023/01/30 00:57:37;;;;;;;344.00;94.63;;;;;;;3.91;82.65;99938.56;318507;31;1190;-74
2023/01/30 00:57:47;;;;;;;344.38;91.60;;;;;;;3.91;82.40;99941.13;317671;30;4460;-74
2023/01/30 00:57:57;;;;;;;343.13;91.70;;;;;;;3.91;82.44;99940.28;317843;30;4390;-74
2023/01/30 00:58:08;;;;;;;340.52;90.32;;;;;;;3.93;82.38;99935.94;319118;30;4078;-74
2023/01/30 00:58:19;;;;;;;340.75;93.25;;;;;;;3.94;82.15;99937.66;316338;30;4795;-74
2023/01/30 00:58:29;;;;;;;343.37;93.27;;;;;;;3.96;82.21;99938.50;312817;31;3840;-75
2023/01/30 00:58:40;;;;;;;348.00;94.97;;;;;;;3.93;82.01;99939.41;313757;31;1898;-75
2023/01/30 00:58:50;;;;;;;344.83;93.73;;;;;;;3.95;82.43;99947.16;313976;31;2922;-74
2023/01/30 00:59:00;;;;;;;339.00;91.88;;;;;;;3.94;82.24;99937.66;311006;31;3100;-75